sensor_id;sensor_type;location;lat;lon;timestamp;P1;durP1;ratioP1;P2;durP2;ratioP2
75890;SDS011;64571;47.512;19.054;2024-03-22T00:02:54;21.55;;;9.88;;
75890;SDS011;64571;47.512;19.054;2024-03-22T00:05:56;23.55;;;10.73;;
75890;SDS011;64571;47.512;19.054;2024-03-22T00:08:57;23.60;;;9.97;;
75890;SDS011;64571;47.512;19.054;2024-03-22T00:11:59;27.58;;;10.85;;
75890;SDS011;64571;47.512;19.054;2024-03-22T00:15:01;25.12;;;10.90;;
75890;SDS011;64571;47.512;19.054;2024-03-22T00:18:03;25.25;;;10.90;;
75890;SDS011;64571;47.512;19.054;2024-03-22T00:21:04;25.25;;;11.52;;
75890;SDS011;64571;47.512;19.054;2024-03-22T00:24:06;24.83;;;11.10;;
75890;SDS011;64571;47.512;19.054;2024-03-22T00:27:07;26.65;;;11.30;;
75890;SDS011;64571;47.512;19.054;2024-03-22T00:30:09;28.25;;;10.52;;
75890;SDS011;64571;47.512;19.054;2024-03-22T00:33:11;23.60;;;10.77;;
75890;SDS011;64571;47.512;19.054;2024-03-22T00:36:13;21.17;;;10.35;;
75890;SDS011;64571;47.512;19.054;2024-03-22T00:39:14;28.30;;;11.23;;
75890;SDS011;64571;47.512;19.054;2024-03-22T00:42:16;25.35;;;10.57;;
75890;SDS011;64571;47.512;19.054;2024-03-22T00:45:17;25.98;;;11.40;;
75890;SDS011;64571;47.512;19.054;2024-03-22T00:48:19;26.60;;;10.50;;
75890;SDS011;64571;47.512;19.054;2024-03-22T00:51:20;25.23;;;10.57;;
75890;SDS011;64571;47.512;19.054;2024-03-22T00:54:23;25.03;;;10.17;;
75890;SDS011;64571;47.512;19.054;2024-03-22T00:57:25;22.80;;;10.40;;
75890;SDS011;64571;47.512;19.054;2024-03-22T01:00:27;19.92;;;9.52;;
75890;SDS011;64571;47.512;19.054;2024-03-22T01:03:28;24.67;;;9.85;;
75890;SDS011;64571;47.512;19.054;2024-03-22T01:06:30;21.60;;;9.60;;
75890;SDS011;64571;47.512;19.054;2024-03-22T01:09:31;21.83;;;9.47;;
75890;SDS011;64571;47.512;19.054;2024-03-22T01:12:33;23.85;;;10.50;;
75890;SDS011;64571;47.512;19.054;2024-03-22T01:15:35;30.67;;;9.50;;
75890;SDS011;64571;47.512;19.054;2024-03-22T01:18:37;22.15;;;9.60;;
75890;SDS011;64571;47.512;19.054;2024-03-22T01:21:38;20.10;;;8.85;;
75890;SDS011;64571;47.512;19.054;2024-03-22T01:24:40;25.80;;;9.87;;
75890;SDS011;64571;47.512;19.054;2024-03-22T01:27:41;20.90;;;9.63;;
75890;SDS011;64571;47.512;19.054;2024-03-22T01:30:43;24.17;;;10.02;;
75890;SDS011;64571;47.512;19.054;2024-03-22T01:33:45;22.83;;;9.65;;
75890;SDS011;64571;47.512;19.054;2024-03-22T01:36:46;24.90;;;10.10;;
75890;SDS011;64571;47.512;19.054;2024-03-22T01:39:48;24.50;;;9.53;;
75890;SDS011;64571;47.512;19.054;2024-03-22T01:42:52;26.77;;;9.75;;
75890;SDS011;64571;47.512;19.054;2024-03-22T01:45:54;21.85;;;9.07;;
75890;SDS011;64571;47.512;19.054;2024-03-22T01:48:56;23.05;;;10.27;;
75890;SDS011;64571;47.512;19.054;2024-03-22T01:51:58;22.90;;;9.27;;
75890;SDS011;64571;47.512;19.054;2024-03-22T01:54:59;22.80;;;9.90;;
75890;SDS011;64571;47.512;19.054;2024-03-22T01:58:01;24.55;;;10.02;;
75890;SDS011;64571;47.512;19.054;2024-03-22T02:01:04;20.40;;;9.45;;
75890;SDS011;64571;47.512;19.054;2024-03-22T02:04:06;24.87;;;9.10;;
75890;SDS011;64571;47.512;19.054;2024-03-22T02:07:08;22.70;;;8.73;;
75890;SDS011;64571;47.512;19.054;2024-03-22T02:10:09;23.03;;;9.57;;
75890;SDS011;64571;47.512;19.054;2024-03-22T02:13:11;22.20;;;9.55;;
75890;SDS011;64571;47.512;19.054;2024-03-22T02:16:13;23.40;;;10.95;;
75890;SDS011;64571;47.512;19.054;2024-03-22T02:19:15;23.95;;;10.02;;
75890;SDS011;64571;47.512;19.054;2024-03-22T02:22:17;23.67;;;9.90;;
75890;SDS011;64571;47.512;19.054;2024-03-22T02:25:18;22.57;;;10.07;;
75890;SDS011;64571;47.512;19.054;2024-03-22T02:28:20;24.95;;;10.57;;
75890;SDS011;64571;47.512;19.054;2024-03-22T02:31:21;21.73;;;10.07;;
75890;SDS011;64571;47.512;19.054;2024-03-22T02:34:23;23.25;;;9.85;;
75890;SDS011;64571;47.512;19.054;2024-03-22T02:37:25;25.23;;;10.80;;
75890;SDS011;64571;47.512;19.054;2024-03-22T02:40:27;26.57;;;10.70;;
75890;SDS011;64571;47.512;19.054;2024-03-22T02:43:28;24.73;;;10.32;;
75890;SDS011;64571;47.512;19.054;2024-03-22T02:46:30;22.87;;;10.15;;
75890;SDS011;64571;47.512;19.054;2024-03-22T02:49:31;24.33;;;10.35;;
75890;SDS011;64571;47.512;19.054;2024-03-22T02:52:33;20.98;;;10.05;;
75890;SDS011;64571;47.512;19.054;2024-03-22T02:55:38;25.90;;;10.47;;
75890;SDS011;64571;47.512;19.054;2024-03-22T02:58:41;22.83;;;10.18;;
75890;SDS011;64571;47.512;19.054;2024-03-22T03:01:42;23.62;;;10.68;;
75890;SDS011;64571;47.512;19.054;2024-03-22T03:04:44;23.95;;;11.52;;
75890;SDS011;64571;47.512;19.054;2024-03-22T03:07:45;31.30;;;11.30;;
75890;SDS011;64571;47.512;19.054;2024-03-22T03:10:48;24.67;;;10.83;;
75890;SDS011;64571;47.512;19.054;2024-03-22T03:13:49;23.33;;;10.30;;
75890;SDS011;64571;47.512;19.054;2024-03-22T03:16:51;25.73;;;10.85;;
75890;SDS011;64571;47.512;19.054;2024-03-22T03:19:53;23.10;;;10.45;;
75890;SDS011;64571;47.512;19.054;2024-03-22T03:22:54;30.27;;;12.25;;
75890;SDS011;64571;47.512;19.054;2024-03-22T03:25:56;24.40;;;10.80;;
75890;SDS011;64571;47.512;19.054;2024-03-22T03:28:58;24.37;;;10.27;;
75890;SDS011;64571;47.512;19.054;2024-03-22T03:31:59;26.30;;;11.45;;
75890;SDS011;64571;47.512;19.054;2024-03-22T03:35:01;26.42;;;12.18;;
75890;SDS011;64571;47.512;19.054;2024-03-22T03:38:03;25.58;;;11.40;;
75890;SDS011;64571;47.512;19.054;2024-03-22T03:41:05;26.57;;;11.10;;
75890;SDS011;64571;47.512;19.054;2024-03-22T03:44:06;25.20;;;11.48;;
75890;SDS011;64571;47.512;19.054;2024-03-22T03:47:08;27.60;;;11.45;;
75890;SDS011;64571;47.512;19.054;2024-03-22T03:50:10;26.73;;;12.05;;
75890;SDS011;64571;47.512;19.054;2024-03-22T03:53:11;25.85;;;11.77;;
75890;SDS011;64571;47.512;19.054;2024-03-22T03:56:13;26.90;;;12.63;;
75890;SDS011;64571;47.512;19.054;2024-03-22T03:59:14;29.12;;;11.75;;
75890;SDS011;64571;47.512;19.054;2024-03-22T04:02:16;24.90;;;11.75;;
75890;SDS011;64571;47.512;19.054;2024-03-22T04:05:18;24.48;;;11.48;;
75890;SDS011;64571;47.512;19.054;2024-03-22T04:08:20;25.02;;;11.57;;
75890;SDS011;64571;47.512;19.054;2024-03-22T04:11:22;28.10;;;12.03;;
75890;SDS011;64571;47.512;19.054;2024-03-22T04:14:23;24.35;;;11.07;;
75890;SDS011;64571;47.512;19.054;2024-03-22T04:17:25;26.27;;;11.68;;
75890;SDS011;64571;47.512;19.054;2024-03-22T04:20:26;24.15;;;11.80;;
75890;SDS011;64571;47.512;19.054;2024-03-22T04:23:28;20.92;;;11.00;;
75890;SDS011;64571;47.512;19.054;2024-03-22T04:26:29;22.70;;;10.93;;
75890;SDS011;64571;47.512;19.054;2024-03-22T04:29:31;24.25;;;12.55;;
75890;SDS011;64571;47.512;19.054;2024-03-22T04:32:33;22.13;;;12.43;;
75890;SDS011;64571;47.512;19.054;2024-03-22T04:35:34;25.70;;;12.63;;
75890;SDS011;64571;47.512;19.054;2024-03-22T04:38:36;27.33;;;13.13;;
75890;SDS011;64571;47.512;19.054;2024-03-22T04:41:38;22.23;;;11.30;;
75890;SDS011;64571;47.512;19.054;2024-03-22T04:44:39;25.25;;;12.30;;
75890;SDS011;64571;47.512;19.054;2024-03-22T04:47:41;23.40;;;12.27;;
75890;SDS011;64571;47.512;19.054;2024-03-22T04:50:44;21.83;;;12.35;;
75890;SDS011;64571;47.512;19.054;2024-03-22T04:53:46;22.73;;;11.68;;
75890;SDS011;64571;47.512;19.054;2024-03-22T04:56:48;26.67;;;11.87;;
75890;SDS011;64571;47.512;19.054;2024-03-22T04:59:49;23.62;;;12.23;;
75890;SDS011;64571;47.512;19.054;2024-03-22T05:02:51;26.15;;;11.30;;
75890;SDS011;64571;47.512;19.054;2024-03-22T05:05:53;25.23;;;12.80;;
75890;SDS011;64571;47.512;19.054;2024-03-22T05:08:56;25.58;;;12.88;;
75890;SDS011;64571;47.512;19.054;2024-03-22T05:11:58;24.27;;;11.97;;
75890;SDS011;64571;47.512;19.054;2024-03-22T05:14:59;23.73;;;12.15;;
75890;SDS011;64571;47.512;19.054;2024-03-22T05:18:01;25.85;;;12.88;;
75890;SDS011;64571;47.512;19.054;2024-03-22T05:21:02;24.40;;;12.80;;
75890;SDS011;64571;47.512;19.054;2024-03-22T05:24:04;26.73;;;12.63;;
75890;SDS011;64571;47.512;19.054;2024-03-22T05:27:06;20.87;;;11.63;;
75890;SDS011;64571;47.512;19.054;2024-03-22T05:30:08;23.85;;;12.20;;
75890;SDS011;64571;47.512;19.054;2024-03-22T05:33:11;23.73;;;11.95;;
75890;SDS011;64571;47.512;19.054;2024-03-22T05:36:12;23.10;;;11.75;;
75890;SDS011;64571;47.512;19.054;2024-03-22T05:39:14;28.60;;;12.93;;
75890;SDS011;64571;47.512;19.054;2024-03-22T05:42:16;26.37;;;11.97;;
75890;SDS011;64571;47.512;19.054;2024-03-22T05:45:17;20.90;;;11.27;;
75890;SDS011;64571;47.512;19.054;2024-03-22T05:48:19;22.92;;;12.43;;
75890;SDS011;64571;47.512;19.054;2024-03-22T05:51:21;22.48;;;12.07;;
75890;SDS011;64571;47.512;19.054;2024-03-22T05:54:22;26.20;;;12.57;;
75890;SDS011;64571;47.512;19.054;2024-03-22T05:57:24;21.30;;;10.67;;
75890;SDS011;64571;47.512;19.054;2024-03-22T06:00:26;25.65;;;11.75;;
75890;SDS011;64571;47.512;19.054;2024-03-22T06:03:28;27.65;;;12.43;;
75890;SDS011;64571;47.512;19.054;2024-03-22T06:06:31;23.17;;;12.50;;
75890;SDS011;64571;47.512;19.054;2024-03-22T06:09:34;23.02;;;11.52;;
75890;SDS011;64571;47.512;19.054;2024-03-22T06:12:38;28.03;;;12.60;;
75890;SDS011;64571;47.512;19.054;2024-03-22T06:15:41;26.05;;;11.25;;
75890;SDS011;64571;47.512;19.054;2024-03-22T06:18:46;22.23;;;10.95;;
75890;SDS011;64571;47.512;19.054;2024-03-22T06:21:49;25.12;;;12.27;;
75890;SDS011;64571;47.512;19.054;2024-03-22T06:24:50;24.60;;;12.43;;
75890;SDS011;64571;47.512;19.054;2024-03-22T06:27:52;27.63;;;11.80;;
75890;SDS011;64571;47.512;19.054;2024-03-22T06:30:54;22.52;;;12.27;;
75890;SDS011;64571;47.512;19.054;2024-03-22T06:33:57;23.58;;;12.43;;
75890;SDS011;64571;47.512;19.054;2024-03-22T06:37:03;25.60;;;12.77;;
75890;SDS011;64571;47.512;19.054;2024-03-22T06:40:05;27.00;;;14.57;;
75890;SDS011;64571;47.512;19.054;2024-03-22T06:43:09;27.07;;;12.93;;
75890;SDS011;64571;47.512;19.054;2024-03-22T06:46:11;23.80;;;11.73;;
75890;SDS011;64571;47.512;19.054;2024-03-22T06:49:12;23.38;;;12.15;;
75890;SDS011;64571;47.512;19.054;2024-03-22T06:52:14;20.83;;;11.60;;
75890;SDS011;64571;47.512;19.054;2024-03-22T06:55:17;22.83;;;12.15;;
75890;SDS011;64571;47.512;19.054;2024-03-22T06:58:20;21.47;;;11.73;;
75890;SDS011;64571;47.512;19.054;2024-03-22T07:01:22;25.02;;;11.93;;
75890;SDS011;64571;47.512;19.054;2024-03-22T07:04:24;24.10;;;12.55;;
75890;SDS011;64571;47.512;19.054;2024-03-22T07:07:25;20.52;;;10.75;;
75890;SDS011;64571;47.512;19.054;2024-03-22T07:10:28;21.83;;;11.43;;
75890;SDS011;64571;47.512;19.054;2024-03-22T07:13:31;28.20;;;12.07;;
75890;SDS011;64571;47.512;19.054;2024-03-22T07:16:33;32.22;;;11.52;;
75890;SDS011;64571;47.512;19.054;2024-03-22T07:19:35;27.85;;;13.25;;
75890;SDS011;64571;47.512;19.054;2024-03-22T07:22:37;21.87;;;11.82;;
75890;SDS011;64571;47.512;19.054;2024-03-22T07:25:38;22.67;;;13.70;;
75890;SDS011;64571;47.512;19.054;2024-03-22T07:28:40;24.80;;;12.13;;
75890;SDS011;64571;47.512;19.054;2024-03-22T07:31:42;25.20;;;12.10;;
75890;SDS011;64571;47.512;19.054;2024-03-22T07:34:45;22.83;;;12.37;;
75890;SDS011;64571;47.512;19.054;2024-03-22T07:37:47;21.02;;;11.77;;
75890;SDS011;64571;47.512;19.054;2024-03-22T07:40:49;22.98;;;12.57;;
75890;SDS011;64571;47.512;19.054;2024-03-22T07:43:51;23.30;;;11.43;;
75890;SDS011;64571;47.512;19.054;2024-03-22T07:46:52;31.85;;;13.32;;
75890;SDS011;64571;47.512;19.054;2024-03-22T07:49:54;23.10;;;12.63;;
75890;SDS011;64571;47.512;19.054;2024-03-22T07:52:56;25.30;;;11.90;;
75890;SDS011;64571;47.512;19.054;2024-03-22T07:55:57;22.40;;;11.88;;
75890;SDS011;64571;47.512;19.054;2024-03-22T07:58:59;26.90;;;13.50;;
75890;SDS011;64571;47.512;19.054;2024-03-22T08:02:01;27.73;;;12.60;;
75890;SDS011;64571;47.512;19.054;2024-03-22T08:05:04;21.60;;;11.65;;
75890;SDS011;64571;47.512;19.054;2024-03-22T08:08:06;23.15;;;12.93;;
75890;SDS011;64571;47.512;19.054;2024-03-22T08:11:08;24.42;;;13.15;;
75890;SDS011;64571;47.512;19.054;2024-03-22T08:14:10;23.63;;;12.43;;
75890;SDS011;64571;47.512;19.054;2024-03-22T08:17:12;21.85;;;12.37;;
75890;SDS011;64571;47.512;19.054;2024-03-22T08:20:14;24.35;;;13.18;;
75890;SDS011;64571;47.512;19.054;2024-03-22T08:23:15;25.33;;;12.55;;
75890;SDS011;64571;47.512;19.054;2024-03-22T08:26:19;23.67;;;12.40;;
75890;SDS011;64571;47.512;19.054;2024-03-22T08:29:21;20.13;;;11.73;;
75890;SDS011;64571;47.512;19.054;2024-03-22T08:32:22;24.98;;;13.05;;
75890;SDS011;64571;47.512;19.054;2024-03-22T08:35:24;22.73;;;12.77;;
75890;SDS011;64571;47.512;19.054;2024-03-22T08:38:26;26.27;;;13.00;;
75890;SDS011;64571;47.512;19.054;2024-03-22T08:41:28;24.85;;;14.10;;
75890;SDS011;64571;47.512;19.054;2024-03-22T08:44:30;23.77;;;13.27;;
75890;SDS011;64571;47.512;19.054;2024-03-22T08:47:31;25.12;;;13.10;;
75890;SDS011;64571;47.512;19.054;2024-03-22T08:50:34;23.77;;;15.38;;
75890;SDS011;64571;47.512;19.054;2024-03-22T08:53:36;22.17;;;13.65;;
75890;SDS011;64571;47.512;19.054;2024-03-22T08:56:38;22.20;;;13.07;;
75890;SDS011;64571;47.512;19.054;2024-03-22T08:59:40;22.83;;;12.77;;
75890;SDS011;64571;47.512;19.054;2024-03-22T09:02:41;24.15;;;13.75;;
75890;SDS011;64571;47.512;19.054;2024-03-22T09:05:43;22.48;;;12.93;;
75890;SDS011;64571;47.512;19.054;2024-03-22T09:08:45;23.20;;;12.90;;
75890;SDS011;64571;47.512;19.054;2024-03-22T09:11:46;22.92;;;13.43;;
75890;SDS011;64571;47.512;19.054;2024-03-22T09:14:48;22.00;;;12.03;;
75890;SDS011;64571;47.512;19.054;2024-03-22T09:17:51;22.65;;;12.07;;
75890;SDS011;64571;47.512;19.054;2024-03-22T09:20:54;22.60;;;11.90;;
75890;SDS011;64571;47.512;19.054;2024-03-22T09:23:55;18.92;;;11.10;;
75890;SDS011;64571;47.512;19.054;2024-03-22T09:26:57;22.30;;;12.20;;
75890;SDS011;64571;47.512;19.054;2024-03-22T09:29:59;22.90;;;12.10;;
75890;SDS011;64571;47.512;19.054;2024-03-22T09:33:02;22.17;;;11.40;;
75890;SDS011;64571;47.512;19.054;2024-03-22T09:36:04;20.70;;;12.23;;
75890;SDS011;64571;47.512;19.054;2024-03-22T09:39:06;21.08;;;11.30;;
75890;SDS011;64571;47.512;19.054;2024-03-22T09:42:09;23.08;;;12.30;;
75890;SDS011;64571;47.512;19.054;2024-03-22T09:45:19;20.17;;;12.80;;
75890;SDS011;64571;47.512;19.054;2024-03-22T09:48:21;22.48;;;13.15;;
75890;SDS011;64571;47.512;19.054;2024-03-22T09:51:24;21.05;;;12.20;;
75890;SDS011;64571;47.512;19.054;2024-03-22T09:54:26;24.15;;;13.00;;
75890;SDS011;64571;47.512;19.054;2024-03-22T09:57:28;19.60;;;11.98;;
75890;SDS011;64571;47.512;19.054;2024-03-22T10:00:30;19.67;;;11.70;;
75890;SDS011;64571;47.512;19.054;2024-03-22T10:03:32;20.70;;;11.68;;
75890;SDS011;64571;47.512;19.054;2024-03-22T10:06:34;23.87;;;12.37;;
75890;SDS011;64571;47.512;19.054;2024-03-22T10:09:36;25.42;;;14.23;;
75890;SDS011;64571;47.512;19.054;2024-03-22T10:12:38;25.05;;;13.13;;
75890;SDS011;64571;47.512;19.054;2024-03-22T10:15:40;20.47;;;11.93;;
75890;SDS011;64571;47.512;19.054;2024-03-22T10:18:42;25.00;;;13.15;;
75890;SDS011;64571;47.512;19.054;2024-03-22T10:21:44;23.33;;;14.52;;
75890;SDS011;64571;47.512;19.054;2024-03-22T10:24:46;24.80;;;12.85;;
75890;SDS011;64571;47.512;19.054;2024-03-22T10:27:47;22.75;;;13.13;;
75890;SDS011;64571;47.512;19.054;2024-03-22T10:30:50;19.93;;;12.00;;
75890;SDS011;64571;47.512;19.054;2024-03-22T10:33:52;18.87;;;11.75;;
75890;SDS011;64571;47.512;19.054;2024-03-22T10:36:56;20.27;;;11.40;;
75890;SDS011;64571;47.512;19.054;2024-03-22T10:40:04;21.05;;;11.07;;
75890;SDS011;64571;47.512;19.054;2024-03-22T10:43:08;17.90;;;10.48;;
75890;SDS011;64571;47.512;19.054;2024-03-22T10:46:11;19.97;;;10.33;;
75890;SDS011;64571;47.512;19.054;2024-03-22T10:49:17;19.12;;;9.85;;
75890;SDS011;64571;47.512;19.054;2024-03-22T10:52:21;17.67;;;10.77;;
75890;SDS011;64571;47.512;19.054;2024-03-22T10:58:29;23.52;;;10.43;;
75890;SDS011;64571;47.512;19.054;2024-03-22T11:01:32;17.00;;;9.50;;
75890;SDS011;64571;47.512;19.054;2024-03-22T11:04:38;16.10;;;9.82;;
75890;SDS011;64571;47.512;19.054;2024-03-22T11:07:39;19.70;;;10.35;;
75890;SDS011;64571;47.512;19.054;2024-03-22T11:10:41;18.00;;;10.93;;
75890;SDS011;64571;47.512;19.054;2024-03-22T11:13:43;21.00;;;11.55;;
75890;SDS011;64571;47.512;19.054;2024-03-22T11:16:44;20.33;;;10.67;;
75890;SDS011;64571;47.512;19.054;2024-03-22T11:19:46;23.35;;;10.32;;
75890;SDS011;64571;47.512;19.054;2024-03-22T11:22:48;18.73;;;10.32;;
75890;SDS011;64571;47.512;19.054;2024-03-22T11:25:50;16.90;;;10.20;;
75890;SDS011;64571;47.512;19.054;2024-03-22T11:28:52;20.92;;;11.30;;
75890;SDS011;64571;47.512;19.054;2024-03-22T11:31:54;18.87;;;11.30;;
75890;SDS011;64571;47.512;19.054;2024-03-22T11:34:56;19.65;;;11.52;;
75890;SDS011;64571;47.512;19.054;2024-03-22T11:37:58;20.67;;;11.35;;
75890;SDS011;64571;47.512;19.054;2024-03-22T11:41:00;23.87;;;11.75;;
75890;SDS011;64571;47.512;19.054;2024-03-22T11:44:06;18.95;;;10.05;;
75890;SDS011;64571;47.512;19.054;2024-03-22T11:47:08;17.50;;;9.77;;
75890;SDS011;64571;47.512;19.054;2024-03-22T11:50:11;20.95;;;11.00;;
75890;SDS011;64571;47.512;19.054;2024-03-22T11:53:17;15.80;;;9.30;;
75890;SDS011;64571;47.512;19.054;2024-03-22T11:56:19;13.98;;;8.05;;
75890;SDS011;64571;47.512;19.054;2024-03-22T11:59:21;14.60;;;8.90;;
75890;SDS011;64571;47.512;19.054;2024-03-22T12:02:22;15.07;;;8.47;;
75890;SDS011;64571;47.512;19.054;2024-03-22T12:05:24;14.87;;;8.23;;
75890;SDS011;64571;47.512;19.054;2024-03-22T12:08:27;14.87;;;7.93;;
75890;SDS011;64571;47.512;19.054;2024-03-22T12:11:29;25.33;;;8.93;;
75890;SDS011;64571;47.512;19.054;2024-03-22T12:14:31;17.35;;;9.05;;
75890;SDS011;64571;47.512;19.054;2024-03-22T12:17:32;17.63;;;9.20;;
75890;SDS011;64571;47.512;19.054;2024-03-22T12:20:37;19.77;;;9.15;;
75890;SDS011;64571;47.512;19.054;2024-03-22T12:23:38;14.43;;;8.50;;
75890;SDS011;64571;47.512;19.054;2024-03-22T12:26:40;16.60;;;8.52;;
75890;SDS011;64571;47.512;19.054;2024-03-22T12:29:42;16.87;;;9.02;;
75890;SDS011;64571;47.512;19.054;2024-03-22T12:32:43;17.00;;;8.93;;
75890;SDS011;64571;47.512;19.054;2024-03-22T12:35:45;18.67;;;9.38;;
75890;SDS011;64571;47.512;19.054;2024-03-22T12:38:48;19.15;;;10.15;;
75890;SDS011;64571;47.512;19.054;2024-03-22T12:41:49;15.48;;;9.70;;
75890;SDS011;64571;47.512;19.054;2024-03-22T12:44:51;16.42;;;10.07;;
75890;SDS011;64571;47.512;19.054;2024-03-22T12:47:53;18.03;;;9.80;;
75890;SDS011;64571;47.512;19.054;2024-03-22T12:50:54;16.92;;;10.05;;
75890;SDS011;64571;47.512;19.054;2024-03-22T12:53:56;18.80;;;10.20;;
75890;SDS011;64571;47.512;19.054;2024-03-22T12:56:57;16.80;;;8.73;;
75890;SDS011;64571;47.512;19.054;2024-03-22T12:59:59;18.80;;;9.63;;
75890;SDS011;64571;47.512;19.054;2024-03-22T13:03:01;16.37;;;9.10;;
75890;SDS011;64571;47.512;19.054;2024-03-22T13:06:06;16.27;;;9.05;;
75890;SDS011;64571;47.512;19.054;2024-03-22T13:09:08;15.93;;;9.13;;
75890;SDS011;64571;47.512;19.054;2024-03-22T13:12:10;18.25;;;9.27;;
75890;SDS011;64571;47.512;19.054;2024-03-22T13:15:12;20.50;;;9.90;;
75890;SDS011;64571;47.512;19.054;2024-03-22T13:18:14;16.93;;;9.30;;
75890;SDS011;64571;47.512;19.054;2024-03-22T13:21:15;16.77;;;9.20;;
75890;SDS011;64571;47.512;19.054;2024-03-22T13:24:17;18.20;;;9.93;;
75890;SDS011;64571;47.512;19.054;2024-03-22T13:27:20;16.95;;;8.85;;
75890;SDS011;64571;47.512;19.054;2024-03-22T13:30:24;16.20;;;8.70;;
75890;SDS011;64571;47.512;19.054;2024-03-22T13:33:25;18.13;;;9.40;;
75890;SDS011;64571;47.512;19.054;2024-03-22T13:36:27;16.23;;;9.20;;
75890;SDS011;64571;47.512;19.054;2024-03-22T13:39:29;17.15;;;9.48;;
75890;SDS011;64571;47.512;19.054;2024-03-22T13:42:31;18.55;;;8.73;;
75890;SDS011;64571;47.512;19.054;2024-03-22T13:45:32;17.50;;;9.02;;
75890;SDS011;64571;47.512;19.054;2024-03-22T13:48:39;17.07;;;8.43;;
75890;SDS011;64571;47.512;19.054;2024-03-22T13:51:41;18.08;;;8.77;;
75890;SDS011;64571;47.512;19.054;2024-03-22T13:54:43;15.23;;;9.45;;
75890;SDS011;64571;47.512;19.054;2024-03-22T13:57:44;16.37;;;8.98;;
75890;SDS011;64571;47.512;19.054;2024-03-22T14:00:46;14.43;;;8.70;;
75890;SDS011;64571;47.512;19.054;2024-03-22T14:03:48;13.77;;;7.50;;
75890;SDS011;64571;47.512;19.054;2024-03-22T14:06:50;12.98;;;7.28;;
75890;SDS011;64571;47.512;19.054;2024-03-22T14:09:52;15.40;;;7.78;;
75890;SDS011;64571;47.512;19.054;2024-03-22T14:12:53;12.52;;;6.60;;
75890;SDS011;64571;47.512;19.054;2024-03-22T14:15:55;12.77;;;7.87;;
75890;SDS011;64571;47.512;19.054;2024-03-22T14:18:57;12.00;;;7.50;;
75890;SDS011;64571;47.512;19.054;2024-03-22T14:21:58;14.52;;;7.37;;
75890;SDS011;64571;47.512;19.054;2024-03-22T14:25:00;15.88;;;7.70;;
75890;SDS011;64571;47.512;19.054;2024-03-22T14:28:03;16.23;;;7.80;;
75890;SDS011;64571;47.512;19.054;2024-03-22T14:31:06;12.77;;;7.18;;
75890;SDS011;64571;47.512;19.054;2024-03-22T14:34:09;10.00;;;5.77;;
75890;SDS011;64571;47.512;19.054;2024-03-22T14:37:11;10.73;;;6.57;;
75890;SDS011;64571;47.512;19.054;2024-03-22T14:40:13;11.95;;;7.03;;
75890;SDS011;64571;47.512;19.054;2024-03-22T14:43:15;11.05;;;6.07;;
75890;SDS011;64571;47.512;19.054;2024-03-22T14:46:17;13.85;;;6.50;;
75890;SDS011;64571;47.512;19.054;2024-03-22T14:49:25;10.70;;;7.03;;
75890;SDS011;64571;47.512;19.054;2024-03-22T14:52:27;13.48;;;6.60;;
75890;SDS011;64571;47.512;19.054;2024-03-22T14:55:29;11.73;;;7.53;;
75890;SDS011;64571;47.512;19.054;2024-03-22T14:58:31;11.18;;;6.37;;
75890;SDS011;64571;47.512;19.054;2024-03-22T15:01:33;10.15;;;6.30;;
75890;SDS011;64571;47.512;19.054;2024-03-22T15:04:36;11.13;;;6.03;;
75890;SDS011;64571;47.512;19.054;2024-03-22T15:07:38;12.82;;;6.60;;
75890;SDS011;64571;47.512;19.054;2024-03-22T15:10:40;16.87;;;6.68;;
75890;SDS011;64571;47.512;19.054;2024-03-22T15:13:42;9.88;;;5.20;;
75890;SDS011;64571;47.512;19.054;2024-03-22T15:16:43;13.27;;;5.80;;
75890;SDS011;64571;47.512;19.054;2024-03-22T15:19:45;11.20;;;5.93;;
75890;SDS011;64571;47.512;19.054;2024-03-22T15:22:47;13.30;;;5.82;;
75890;SDS011;64571;47.512;19.054;2024-03-22T15:25:48;11.15;;;5.05;;
75890;SDS011;64571;47.512;19.054;2024-03-22T15:28:50;9.70;;;5.03;;
75890;SDS011;64571;47.512;19.054;2024-03-22T15:31:52;11.43;;;4.57;;
75890;SDS011;64571;47.512;19.054;2024-03-22T15:34:53;8.60;;;4.33;;
75890;SDS011;64571;47.512;19.054;2024-03-22T15:37:55;11.15;;;4.10;;
75890;SDS011;64571;47.512;19.054;2024-03-22T15:40:57;10.30;;;4.85;;
75890;SDS011;64571;47.512;19.054;2024-03-22T15:43:59;7.93;;;4.62;;
75890;SDS011;64571;47.512;19.054;2024-03-22T15:47:03;12.60;;;6.22;;
75890;SDS011;64571;47.512;19.054;2024-03-22T15:50:04;10.00;;;4.97;;
75890;SDS011;64571;47.512;19.054;2024-03-22T15:53:07;9.45;;;4.87;;
75890;SDS011;64571;47.512;19.054;2024-03-22T15:56:10;9.85;;;4.87;;
75890;SDS011;64571;47.512;19.054;2024-03-22T15:59:12;11.10;;;5.35;;
75890;SDS011;64571;47.512;19.054;2024-03-22T16:02:13;10.63;;;5.10;;
75890;SDS011;64571;47.512;19.054;2024-03-22T16:05:16;10.50;;;5.03;;
75890;SDS011;64571;47.512;19.054;2024-03-22T16:08:18;11.57;;;6.57;;
75890;SDS011;64571;47.512;19.054;2024-03-22T16:11:20;11.82;;;5.28;;
75890;SDS011;64571;47.512;19.054;2024-03-22T16:14:22;11.88;;;5.12;;
75890;SDS011;64571;47.512;19.054;2024-03-22T16:17:24;9.48;;;5.40;;
75890;SDS011;64571;47.512;19.054;2024-03-22T16:20:25;9.10;;;4.97;;
75890;SDS011;64571;47.512;19.054;2024-03-22T16:23:27;9.27;;;4.90;;
75890;SDS011;64571;47.512;19.054;2024-03-22T16:26:31;13.50;;;5.85;;
75890;SDS011;64571;47.512;19.054;2024-03-22T16:29:33;10.95;;;5.28;;
75890;SDS011;64571;47.512;19.054;2024-03-22T16:32:34;10.75;;;5.50;;
75890;SDS011;64571;47.512;19.054;2024-03-22T16:35:37;10.40;;;5.57;;
75890;SDS011;64571;47.512;19.054;2024-03-22T16:38:38;11.70;;;5.25;;
75890;SDS011;64571;47.512;19.054;2024-03-22T16:41:41;11.38;;;6.10;;
75890;SDS011;64571;47.512;19.054;2024-03-22T16:44:43;11.63;;;6.05;;
75890;SDS011;64571;47.512;19.054;2024-03-22T16:47:46;9.93;;;5.55;;
75890;SDS011;64571;47.512;19.054;2024-03-22T16:50:51;11.40;;;5.30;;
75890;SDS011;64571;47.512;19.054;2024-03-22T16:53:53;13.90;;;5.93;;
75890;SDS011;64571;47.512;19.054;2024-03-22T16:56:54;16.20;;;8.30;;
75890;SDS011;64571;47.512;19.054;2024-03-22T16:59:56;15.02;;;6.60;;
75890;SDS011;64571;47.512;19.054;2024-03-22T17:02:58;12.25;;;6.75;;
75890;SDS011;64571;47.512;19.054;2024-03-22T17:06:01;14.00;;;6.07;;
75890;SDS011;64571;47.512;19.054;2024-03-22T17:09:03;11.77;;;5.40;;
75890;SDS011;64571;47.512;19.054;2024-03-22T17:12:06;12.93;;;5.47;;
75890;SDS011;64571;47.512;19.054;2024-03-22T17:15:08;16.45;;;8.90;;
75890;SDS011;64571;47.512;19.054;2024-03-22T17:18:10;15.77;;;6.12;;
75890;SDS011;64571;47.512;19.054;2024-03-22T17:21:13;14.90;;;6.33;;
75890;SDS011;64571;47.512;19.054;2024-03-22T17:24:14;14.13;;;5.75;;
75890;SDS011;64571;47.512;19.054;2024-03-22T17:27:16;11.20;;;5.55;;
75890;SDS011;64571;47.512;19.054;2024-03-22T17:30:18;14.63;;;5.53;;
75890;SDS011;64571;47.512;19.054;2024-03-22T17:33:20;11.32;;;6.68;;
75890;SDS011;64571;47.512;19.054;2024-03-22T17:36:22;14.10;;;7.10;;
75890;SDS011;64571;47.512;19.054;2024-03-22T17:39:23;17.17;;;8.40;;